createdAt,value
2019-01-12T00:00:50.158Z,91860.52
2019-01-12T00:03:39.022Z,91853.45
2019-01-12T00:06:29.036Z,91854.86
2019-01-12T00:09:18.112Z,91853.73
2019-01-12T00:12:07.540Z,91858.22
2019-01-12T00:14:56.935Z,91858.18
2019-01-12T00:17:46.765Z,91849.55
2019-01-12T00:20:36.283Z,91838.73
2019-01-12T00:23:25.192Z,91843.45
2019-01-12T00:26:14.969Z,91850.12
2019-01-12T00:29:04.541Z,91847.74
2019-01-12T00:31:53.894Z,91846.48
2019-01-12T00:34:43.739Z,91852.22
2019-01-12T00:37:33.267Z,91852.27
2019-01-12T00:40:22.866Z,91849.93
2019-01-12T00:43:12.147Z,91849.30
2019-01-12T00:46:01.458Z,91839.92
2019-01-12T00:48:50.853Z,91835.88
2019-01-12T00:51:40.287Z,91842.38
2019-01-12T00:54:29.365Z,91841.92
2019-01-12T00:57:18.789Z,91832.11
2019-01-12T01:00:12.585Z,91840.98
2019-01-12T01:03:01.946Z,91842.48
2019-01-12T01:05:51.337Z,91838.39
2019-01-12T01:08:40.614Z,91832.82
2019-01-12T01:11:29.504Z,91842.44
2019-01-12T01:14:19.018Z,91848.15
2019-01-12T01:17:08.688Z,91837.44
2019-01-12T01:20:02.571Z,91838.94
2019-01-12T01:22:52.932Z,91847.34
2019-01-12T01:25:42.475Z,91846.77
2019-01-12T01:28:31.936Z,91841.03
2019-01-12T01:31:20.734Z,91839.40
2019-01-12T01:34:10.434Z,91833.95
2019-01-12T01:37:00.343Z,91828.98
2019-01-12T01:39:49.508Z,91825.55
2019-01-12T01:42:39.150Z,91815.66
2019-01-12T01:45:28.928Z,91813.58
2019-01-12T01:48:18.232Z,91811.29
2019-01-12T01:51:10.061Z,91812.34
2019-01-12T01:53:59.414Z,91815.73
2019-01-12T01:56:48.759Z,91810.36
2019-01-12T01:59:38.066Z,91804.95
2019-01-12T02:02:27.460Z,91800.31
2019-01-12T02:05:16.763Z,91798.70
2019-01-12T02:08:06.391Z,91793.45
2019-01-12T02:10:55.187Z,91784.69
2019-01-12T02:13:44.415Z,91786.66
2019-01-12T02:16:33.800Z,91786.19
2019-01-12T02:19:25.203Z,91796.58
2019-01-12T02:22:14.667Z,91786.84
2019-01-12T02:25:04.085Z,91782.53
2019-01-12T02:27:55.900Z,91787.19
2019-01-12T02:30:45.432Z,91783.83
2019-01-12T02:33:34.719Z,91782.97
2019-01-12T02:36:24.005Z,91782.90
2019-01-12T02:39:13.256Z,91777.95
2019-01-12T02:42:02.250Z,91776.48
2019-01-12T02:44:51.934Z,91774.11
2019-01-12T02:47:41.526Z,91766.45
2019-01-12T02:50:31.937Z,91768.03
2019-01-12T02:53:21.403Z,91772.55
2019-01-12T02:56:10.663Z,91766.73
2019-01-12T02:58:59.969Z,91753.73
2019-01-12T03:01:49.350Z,91740.28
2019-01-12T03:04:38.420Z,91729.24
2019-01-12T03:07:27.874Z,91717.62
2019-01-12T03:10:18.556Z,91718.89
2019-01-12T03:13:07.345Z,91727.59
2019-01-12T03:15:56.445Z,91725.56
2019-01-12T03:18:45.724Z,91733.66
2019-01-12T03:21:35.196Z,91732.09
2019-01-12T03:24:24.728Z,91722.44
2019-01-12T03:27:13.993Z,91725.02
2019-01-12T03:30:03.227Z,91716.87
2019-01-12T03:32:52.814Z,91719.70
2019-01-12T03:35:42.069Z,91723.80
2019-01-12T03:38:31.575Z,91725.15
2019-01-12T03:41:23.986Z,91719.09
2019-01-12T03:44:13.718Z,91716.95
2019-01-12T03:47:02.970Z,91716.83
2019-01-12T03:49:52.487Z,91722.86
2019-01-12T03:52:43.043Z,91730.42
2019-01-12T03:55:32.377Z,91721.11
2019-01-12T03:58:21.703Z,91708.84
2019-01-12T04:01:11.459Z,91712.75
2019-01-12T04:04:00.878Z,91716.09
2019-01-12T04:06:49.868Z,91759.06
2019-01-12T04:09:39.117Z,91710.86
2019-01-12T04:12:31.884Z,91715.61
2019-01-12T04:15:21.487Z,91715.61
2019-01-12T04:18:10.694Z,91721.73
2019-01-12T04:20:59.997Z,91721.42
2019-01-12T04:23:49.136Z,91728.41
2019-01-12T04:26:38.821Z,91725.51
2019-01-12T04:29:28.972Z,91723.05
2019-01-12T04:32:18.336Z,91730.46
2019-01-12T04:35:08.577Z,91727.47
2019-01-12T04:37:57.992Z,91722.17
2019-01-12T04:40:47.049Z,91726.91
2019-01-12T04:43:36.935Z,91724.88
2019-01-12T04:46:26.804Z,91727.11
2019-01-12T04:49:16.159Z,91727.11
2019-01-12T04:52:06.173Z,91737.76
2019-01-12T04:54:57.082Z,91734.06
2019-01-12T04:57:46.514Z,91732.47
2019-01-12T05:00:35.795Z,91737.61
2019-01-12T05:03:25.291Z,91733.91
2019-01-12T05:06:14.755Z,91740.38
2019-01-12T05:09:05.502Z,91735.60
2019-01-12T05:11:54.545Z,91744.63
2019-01-12T05:14:44.231Z,91743.75
2019-01-12T05:17:34.656Z,91738.78
2019-01-12T05:20:24.278Z,91735.21
2019-01-12T05:23:13.538Z,91738.95
2019-01-12T05:26:02.986Z,91742.25
2019-01-12T05:28:51.962Z,91744.57
2019-01-12T05:31:44.605Z,91751.98
2019-01-12T05:34:39.429Z,91745.99
2019-01-12T05:37:28.987Z,91746.66
2019-01-12T05:40:18.645Z,91746.66
2019-01-12T05:43:08.395Z,91748.86
2019-01-12T05:45:58.142Z,91748.86
2019-01-12T05:48:47.609Z,91765.72
2019-01-12T05:51:39.297Z,91761.16
2019-01-12T05:54:32.026Z,91755.47
2019-01-12T05:57:22.458Z,91746.95
2019-01-12T06:00:29.878Z,91746.95
2019-01-12T06:03:19.007Z,91749.84
2019-01-12T06:06:08.969Z,91749.84
2019-01-12T06:08:58.541Z,91752.03
2019-01-12T06:11:48.098Z,91752.03
2019-01-12T06:14:37.740Z,91757.16
2019-01-12T06:17:26.998Z,91757.16
2019-01-12T06:20:16.874Z,91760.34
2019-01-12T06:23:06.281Z,91759.91
2019-01-12T06:25:55.860Z,91764.44
2019-01-12T06:28:45.382Z,91760.97
2019-01-12T06:31:35.145Z,91768.86
2019-01-12T06:34:24.512Z,91774.07
2019-01-12T06:37:14.263Z,91768.69
2019-01-12T06:40:06.252Z,91783.07
2019-01-12T06:42:55.818Z,91781.62
2019-01-12T06:45:45.674Z,91780.62
2019-01-12T06:48:35.160Z,91782.06
2019-01-12T06:51:24.505Z,91783.64
2019-01-12T06:54:13.493Z,91786.91
2019-01-12T06:57:03.486Z,91788.89
2019-01-12T06:59:52.957Z,91779.56
2019-01-12T07:02:42.690Z,91781.85
2019-01-12T07:05:32.795Z,91784.23
2019-01-12T07:08:22.244Z,91791.38
2019-01-12T07:11:11.665Z,91786.44
2019-01-12T07:14:01.382Z,91780.95
2019-01-12T07:16:50.926Z,91779.72
2019-01-12T07:19:40.129Z,91787.16
2019-01-12T07:22:29.766Z,91788.82
2019-01-12T07:25:19.462Z,91796.33
2019-01-12T07:28:08.387Z,91798.30
2019-01-12T07:30:57.431Z,91798.30
2019-01-12T07:33:46.777Z,91800.95
2019-01-12T07:36:36.378Z,91803.12
2019-01-12T07:39:25.779Z,91798.73
2019-01-12T07:42:16.581Z,91790.09
2019-01-12T07:45:06.768Z,91787.86
2019-01-12T07:47:55.783Z,91784.45
2019-01-12T07:50:45.038Z,91790.30
2019-01-12T07:53:34.125Z,91782.42
2019-01-12T07:56:24.695Z,91780.70
2019-01-12T07:59:14.835Z,91788.05
2019-01-12T08:02:04.228Z,91789.16
2019-01-12T08:04:53.707Z,91781.67
2019-01-12T08:07:43.255Z,91783.07
2019-01-12T08:10:32.973Z,91779.09
2019-01-12T08:13:22.557Z,91781.35
2019-01-12T08:16:11.625Z,91787.83
2019-01-12T08:19:00.946Z,91788.92
2019-01-12T08:21:50.757Z,91798.78
2019-01-12T08:24:40.143Z,91795.83
2019-01-12T08:27:28.744Z,91795.83
2019-01-12T08:30:18.984Z,91796.45
2019-01-12T08:33:08.590Z,91789.38
2019-01-12T08:35:57.930Z,91777.06
2019-01-12T08:38:47.310Z,91779.27
2019-01-12T08:41:39.001Z,91774.95
2019-01-12T08:44:29.468Z,91781.33
2019-01-12T08:47:18.762Z,91772.47
2019-01-12T08:50:11.287Z,91767.63
2019-01-12T08:53:00.558Z,91769.86
2019-01-12T08:55:49.678Z,91757.96
2019-01-12T08:58:39.039Z,91755.55
2019-01-12T09:01:27.935Z,91747.55
2019-01-12T09:04:17.426Z,91746.27
2019-01-12T09:07:06.110Z,91740.97
2019-01-12T09:09:55.357Z,91734.57
2019-01-12T09:12:46.797Z,91733.17
2019-01-12T09:15:36.243Z,91724.42
2019-01-12T09:18:25.858Z,91715.28
2019-01-12T09:21:15.163Z,91701.97
2019-01-12T09:24:04.925Z,91693.30
2019-01-12T09:26:54.262Z,91696.17
2019-01-12T09:29:44.093Z,91693.17
2019-01-12T09:32:33.534Z,91695.52
2019-01-12T09:35:22.968Z,91692.31
2019-01-12T09:38:12.401Z,91686.33
2019-01-12T09:41:01.894Z,91680.64
2019-01-12T09:43:51.421Z,91666.73
2019-01-12T09:46:40.770Z,91664.13
2019-01-12T09:49:29.958Z,91659.58
2019-01-12T09:52:19.544Z,91649.98
2019-01-12T09:55:09.030Z,91640.76
2019-01-12T09:57:58.358Z,91633.75
2019-01-12T10:00:47.592Z,91638.34
2019-01-12T10:03:37.543Z,91637.88
2019-01-12T10:06:26.599Z,91635.04
2019-01-12T10:09:15.754Z,91624.83
2019-01-12T10:12:05.124Z,91628.50
2019-01-12T10:14:54.763Z,91624.61
2019-01-12T10:17:44.122Z,91620.13
2019-01-12T10:20:33.506Z,91623.05
2019-01-12T10:23:22.777Z,91610.19
2019-01-12T10:26:12.148Z,91607.95
2019-01-12T10:29:01.385Z,91612.43
2019-01-12T10:31:50.698Z,91600.13
2019-01-12T10:34:40.101Z,91596.72
2019-01-12T10:37:29.979Z,91581.28
2019-01-12T10:40:19.962Z,91583.24
2019-01-12T10:43:09.264Z,91579.74
2019-01-12T10:45:58.820Z,91578.75
2019-01-12T10:48:47.604Z,91569.97
2019-01-12T10:51:37.162Z,91566.31
2019-01-12T10:54:26.491Z,91562.84
2019-01-12T10:57:15.537Z,91557.34
2019-01-12T11:00:08.043Z,91563.80
2019-01-12T11:02:57.823Z,91559.58
2019-01-12T11:05:47.116Z,91550.56
2019-01-12T11:08:36.685Z,91548.67
2019-01-12T11:11:25.660Z,91545.33
2019-01-12T11:14:14.930Z,91538.23
2019-01-12T11:17:04.165Z,91531.59
2019-01-12T11:19:54.006Z,91531.23
2019-01-12T11:22:43.465Z,91528.56
2019-01-12T11:25:32.775Z,91524.64
2019-01-12T11:28:21.529Z,91529.17
2019-01-12T11:31:12.092Z,91520.09
2019-01-12T11:34:01.437Z,91519.77
2019-01-12T11:36:50.373Z,91519.14
2019-01-12T11:39:39.701Z,91510.02
2019-01-12T11:42:28.918Z,91506.29
2019-01-12T11:45:19.101Z,91501.57
2019-01-12T11:48:08.630Z,91496.89
2019-01-12T11:51:06.442Z,91490.70
2019-01-12T11:53:56.005Z,91489.18
2019-01-12T11:56:45.560Z,91489.38
2019-01-12T11:59:35.044Z,91487.09
2019-01-12T12:02:24.498Z,91482.77
2019-01-12T12:05:13.867Z,91481.63
2019-01-12T12:08:02.690Z,91471.05
2019-01-12T12:10:51.919Z,91472.68
2019-01-12T12:13:41.184Z,91471.17
2019-01-12T12:16:30.438Z,91459.59
2019-01-12T12:19:19.978Z,91468.33
2019-01-12T12:22:09.213Z,91467.82
2019-01-12T12:24:58.507Z,91463.76
2019-01-12T12:27:47.251Z,91476.55
2019-01-12T12:30:36.556Z,91472.59
2019-01-12T12:33:25.844Z,91467.11
2019-01-12T12:36:15.078Z,91466.41
2019-01-12T12:39:07.152Z,91471.36
2019-01-12T12:41:57.071Z,91474.92
2019-01-12T12:44:46.655Z,91473.00
2019-01-12T12:47:35.645Z,91478.08
2019-01-12T12:50:24.897Z,91481.75
2019-01-12T12:53:14.071Z,91487.92
2019-01-12T12:56:03.389Z,91482.02
2019-01-12T12:58:53.148Z,91495.65
2019-01-12T13:01:42.367Z,91492.09
2019-01-12T13:04:31.697Z,91487.25
2019-01-12T13:07:02.545Z,91480.92
2019-01-12T13:09:33.401Z,91483.05
2019-01-12T13:12:04.671Z,91485.80
2019-01-12T13:14:35.532Z,91481.73
2019-01-12T13:17:06.485Z,91473.00
2019-01-12T13:19:37.378Z,91465.13
2019-01-12T13:22:08.215Z,91464.37
2019-01-12T13:24:39.406Z,91467.41
2019-01-12T13:27:10.355Z,91466.41
2019-01-12T13:29:41.264Z,91464.08
2019-01-12T13:32:12.109Z,91451.59
2019-01-12T13:34:43.000Z,91459.09
2019-01-12T13:37:13.860Z,91456.84
2019-01-12T13:39:44.722Z,91458.56
2019-01-12T13:42:15.682Z,91453.20
2019-01-12T13:44:46.558Z,91451.34
2019-01-12T13:47:20.981Z,91458.02
2019-01-12T13:49:49.977Z,91451.58
2019-01-12T13:52:20.821Z,91452.42
2019-01-12T13:54:52.996Z,91451.77
2019-01-12T13:57:24.178Z,91449.31
2019-01-12T13:59:55.044Z,91454.70
2019-01-12T14:02:25.889Z,91448.55
2019-01-12T14:04:56.785Z,91447.45
2019-01-12T14:07:27.639Z,91454.02
2019-01-12T14:09:58.488Z,91456.05
2019-01-12T14:12:30.718Z,91457.91
2019-01-12T14:15:01.577Z,91454.81
2019-01-12T14:17:32.433Z,91448.64
2019-01-12T14:20:03.434Z,91444.61
2019-01-12T14:22:34.282Z,91435.19
2019-01-12T14:25:06.057Z,91435.45
2019-01-12T14:27:37.071Z,91435.71
2019-01-12T14:30:15.365Z,91445.88
2019-01-12T14:32:43.725Z,91445.27
2019-01-12T14:35:15.264Z,91448.63
2019-01-12T14:37:46.307Z,91431.45
2019-01-12T14:40:18.514Z,91433.96
2019-01-12T14:42:49.492Z,91429.80
2019-01-12T14:45:29.427Z,91428.00
2019-01-12T14:48:00.662Z,91438.38
2019-01-12T14:50:31.623Z,91438.27
2019-01-12T14:53:05.934Z,91434.81
2019-01-12T14:55:36.809Z,91441.86
2019-01-12T14:58:07.958Z,91446.98
2019-01-12T15:00:38.894Z,91450.44
2019-01-12T15:03:09.758Z,91449.13
2019-01-12T15:05:40.658Z,91457.23
2019-01-12T15:08:11.624Z,91453.55
2019-01-12T15:10:42.496Z,91456.56
2019-01-12T15:13:13.402Z,91451.68
2019-01-12T15:15:44.326Z,91453.11
2019-01-12T15:18:19.602Z,91444.89
2019-01-12T15:20:50.486Z,91456.58
2019-01-12T15:23:21.446Z,91460.02
2019-01-12T15:25:55.219Z,91458.71
2019-01-12T15:28:26.067Z,91450.61
2019-01-12T15:30:56.982Z,91459.78
2019-01-12T15:33:28.291Z,91455.14
2019-01-12T15:36:00.405Z,91454.66
2019-01-12T15:38:31.272Z,91447.98
2019-01-12T15:41:02.142Z,91461.81
2019-01-12T15:43:33.057Z,91457.52
2019-01-12T15:46:03.957Z,91451.09
2019-01-12T15:48:34.895Z,91456.33
2019-01-12T15:51:06.080Z,91456.33
2019-01-12T15:53:36.935Z,91454.89
2019-01-12T15:56:07.800Z,91455.84
2019-01-12T15:58:38.708Z,91459.53
2019-01-12T16:01:09.583Z,91459.66
2019-01-12T16:03:40.916Z,91455.00
2019-01-12T16:06:13.553Z,91455.13
2019-01-12T16:08:44.626Z,91455.13
2019-01-12T16:11:15.510Z,91464.19
2019-01-12T16:13:46.464Z,91463.36
2019-01-12T16:16:17.369Z,91471.11
2019-01-12T16:18:48.236Z,91475.62
2019-01-12T16:21:19.202Z,91468.23
2019-01-12T16:23:50.066Z,91471.20
2019-01-12T16:26:20.922Z,91466.69
2019-01-12T16:28:54.957Z,91473.24
2019-01-12T16:31:25.875Z,91477.76
2019-01-12T16:33:56.793Z,91477.30
2019-01-12T16:36:30.375Z,91486.45
2019-01-12T16:39:01.268Z,91484.31
2019-01-12T16:41:32.183Z,91480.03
2019-01-12T16:44:03.166Z,91479.80
2019-01-12T16:46:34.035Z,91487.67
2019-01-12T16:49:05.006Z,91487.55
2019-01-12T16:51:35.983Z,91499.09
2019-01-12T16:54:06.846Z,91497.55
2019-01-12T16:56:37.729Z,91497.90
2019-01-12T16:59:08.663Z,91489.08
2019-01-12T17:01:39.527Z,91499.09
2019-01-12T17:04:10.477Z,91501.22
2019-01-12T17:06:41.375Z,91500.74
2019-01-12T17:09:12.231Z,91498.97
2019-01-12T17:11:44.752Z,91499.42
2019-01-12T17:14:15.617Z,91502.91
2019-01-12T17:16:46.502Z,91496.73
2019-01-12T17:19:17.360Z,91497.09
2019-01-12T17:21:48.269Z,91498.88
2019-01-12T17:24:19.252Z,91498.40
2019-01-12T17:26:50.151Z,91499.23
2019-01-12T17:29:21.057Z,91497.45
2019-01-12T17:31:54.859Z,91494.47
2019-01-12T17:34:25.734Z,91496.61
2019-01-12T17:36:58.843Z,91498.16
2019-01-12T17:39:30.069Z,91507.93
2019-01-12T17:42:00.947Z,91502.92
2019-01-12T17:44:31.928Z,91508.29
2019-01-12T17:47:02.795Z,91502.69
2019-01-12T17:49:33.815Z,91505.43
2019-01-12T17:52:04.739Z,91507.94
2019-01-12T17:54:35.613Z,91509.37
2019-01-12T17:57:07.012Z,91516.88
2019-01-12T17:59:37.932Z,91513.66
2019-01-12T18:02:09.180Z,91513.77
2019-01-12T18:04:40.050Z,91523.06
2019-01-12T18:07:11.076Z,91520.91
2019-01-12T18:09:41.973Z,91519.38
2019-01-12T18:12:12.845Z,91510.77
2019-01-12T18:14:43.801Z,91514.58
2019-01-12T18:17:14.783Z,91514.02
2019-01-12T18:19:45.644Z,91520.66
2019-01-12T18:22:16.610Z,91529.96
2019-01-12T18:24:47.523Z,91524.83
2019-01-12T18:27:18.388Z,91524.72
2019-01-12T18:29:50.298Z,91532.59
2019-01-12T18:32:21.174Z,91530.70
2019-01-12T18:34:55.118Z,91528.43
2019-01-12T18:37:26.154Z,91528.08
2019-01-12T18:39:57.016Z,91537.37
2019-01-12T18:42:28.361Z,91535.09
2019-01-12T18:44:59.415Z,91522.94
2019-01-12T18:47:31.301Z,91528.30
2019-01-12T18:50:02.160Z,91532.23
2019-01-12T18:52:33.075Z,91530.44
2019-01-12T18:55:04.045Z,91527.45
2019-01-12T18:57:35.069Z,91534.69
2019-01-12T19:00:10.080Z,91539.70
2019-01-12T19:02:40.919Z,91544.09
2019-01-12T19:05:11.830Z,91544.45
2019-01-12T19:07:42.826Z,91544.22
2019-01-12T19:10:14.066Z,91544.45
2019-01-12T19:12:44.983Z,91541.67
2019-01-12T19:15:18.777Z,91548.09
2019-01-12T19:17:49.659Z,91540.46
2019-01-12T19:20:20.640Z,91554.15
2019-01-12T19:22:51.659Z,91554.25
2019-01-12T19:25:22.634Z,91556.97
2019-01-12T19:27:53.515Z,91549.85
2019-01-12T19:30:24.931Z,91542.00
2019-01-12T19:32:55.813Z,91544.94
2019-01-12T19:35:28.384Z,91543.63
2019-01-12T19:37:59.475Z,91543.92
2019-01-12T19:40:30.341Z,91541.42
2019-01-12T19:43:01.213Z,91539.40
2019-01-12T19:45:32.210Z,91542.53
2019-01-12T19:48:03.144Z,91540.50
2019-01-12T19:50:34.127Z,91551.20
2019-01-12T19:53:08.195Z,91554.86
2019-01-12T19:55:39.182Z,91549.16
2019-01-12T19:58:10.053Z,91558.63
2019-01-12T20:00:41.097Z,91559.53
2019-01-12T20:03:15.163Z,91548.00
2019-01-12T20:05:46.076Z,91556.20
2019-01-12T20:08:16.967Z,91554.64
2019-01-12T20:10:47.962Z,91556.89
2019-01-12T20:13:18.853Z,91558.61
2019-01-12T20:15:49.783Z,91560.01
2019-01-12T20:18:20.722Z,91559.23
2019-01-12T20:20:51.840Z,91552.08
2019-01-12T20:23:22.774Z,91551.69
2019-01-12T20:25:53.675Z,91551.59
2019-01-12T20:28:24.894Z,91547.72
2019-01-12T20:31:32.822Z,91551.02
2019-01-12T20:34:20.810Z,91542.33
2019-01-12T20:37:50.673Z,91536.80
2019-01-12T20:40:57.488Z,91542.80
2019-01-12T20:44:09.473Z,91549.33
2019-01-12T20:47:27.662Z,91547.59
2019-01-12T20:50:23.107Z,91546.58
2019-01-12T20:53:52.804Z,91539.13
2019-01-12T20:57:10.260Z,91549.66
2019-01-12T21:00:16.004Z,91547.80
2019-01-12T21:03:54.176Z,91542.84
2019-01-12T21:06:54.434Z,91533.36
2019-01-12T21:10:01.507Z,91540.58
2019-01-12T21:13:26.834Z,91544.83
2019-01-12T21:16:20.953Z,91546.67
2019-01-12T21:19:10.738Z,91545.73
2019-01-12T21:22:00.438Z,91549.70
2019-01-12T21:24:50.042Z,91548.25
2019-01-12T21:27:39.389Z,91541.34
2019-01-12T21:30:28.942Z,91550.20
2019-01-12T21:33:18.336Z,91554.78
2019-01-12T21:36:07.558Z,91548.00
2019-01-12T21:38:56.855Z,91547.68
2019-01-12T21:41:46.392Z,91539.89
2019-01-12T21:44:36.215Z,91543.47
2019-01-12T21:47:25.452Z,91540.07
2019-01-12T21:50:15.273Z,91540.37
2019-01-12T21:53:04.481Z,91539.58
2019-01-12T21:55:54.084Z,91522.97
2019-01-12T21:58:43.754Z,91531.98
2019-01-12T22:01:36.377Z,91533.34
2019-01-12T22:04:23.512Z,91527.01
2019-01-12T22:07:12.946Z,91530.59
2019-01-12T22:10:02.360Z,91520.89
2019-01-12T22:12:51.763Z,91518.97
2019-01-12T22:15:41.027Z,91523.58
2019-01-12T22:18:30.096Z,91527.36
2019-01-12T22:21:19.269Z,91524.52
2019-01-12T22:24:08.531Z,91525.75
2019-01-12T22:26:58.132Z,91532.09
2019-01-12T22:29:50.018Z,91535.36
2019-01-12T22:32:38.146Z,91531.19
2019-01-12T22:35:27.050Z,91531.17
2019-01-12T22:38:16.760Z,91527.13
2019-01-12T22:41:07.704Z,91529.39
2019-01-12T22:43:57.874Z,91523.58
2019-01-12T22:46:46.651Z,91530.69
2019-01-12T22:49:36.171Z,91530.52
2019-01-12T22:52:25.010Z,91535.44
2019-01-12T22:55:15.045Z,91533.67
2019-01-12T22:58:04.717Z,91532.98
2019-01-12T23:04:33.233Z,91550.19
2019-01-12T23:07:22.716Z,91547.66
2019-01-12T23:10:12.125Z,91547.66
2019-01-12T23:13:01.343Z,91550.63
2019-01-12T23:15:50.655Z,91558.17
2019-01-12T23:18:39.964Z,91558.17
2019-01-12T23:21:29.203Z,91557.86
2019-01-12T23:24:18.490Z,91546.81
2019-01-12T23:27:07.853Z,91546.81
2019-01-12T23:29:56.628Z,91546.77
2019-01-12T23:32:46.054Z,91540.89
2019-01-12T23:35:35.775Z,91547.53
2019-01-12T23:38:25.260Z,91541.06
2019-01-12T23:41:14.529Z,91536.45
2019-01-12T23:44:14.928Z,91536.41
2019-01-12T23:47:05.127Z,91546.02
2019-01-12T23:49:54.584Z,91546.28
2019-01-12T23:52:47.026Z,91540.06
2019-01-12T23:55:36.534Z,91539.81
2019-01-12T23:58:25.817Z,91535.61
